Weather at C 161 Heliport

Public forecast

Using degrees Celsius for public forecast. Weather courtesy of forecast.io.

Closest aviation weather report (METAR) to C 161 Heliport

Closest report is Gimpo International Airport, 14.7 nm (27.2 km) SSW. Retrieved 2020/10/27 11:00 UTC (23 minutes ago):

RKSS 271100Z 05002KT 4200 BR NSC 13/12 Q1021 NOSIG

Closest aviation forecast (TAF) to C 161 Heliport

Closest forecast is Gimpo International Airport, 14.7 nm (27.2 km) SSW. Retrieved 2020/10/27 06:00 UTC (5 hours ago):

TAF RKSS 270500Z 2706/2812 28006KT 6000 SCT030 TN08/2721Z TX17/2805Z BECMG 2712/2713 22005KT 4000 BR BKN030 BECMG 2714/2715 28005KT 2000 BECMG 2718/2719 31007KT 6000 NSW SCT030 BECMG 2805/2806 31015G25KT CAVOK BECMG 2808/2809 31007KT